createdAt,value
2018-05-18T00:00:23.000Z,100900
2018-05-18T00:01:23.000Z,100899
2018-05-18T00:03:23.000Z,100891
2018-05-18T00:05:08.000Z,100883
2018-05-18T00:06:23.000Z,100888
2018-05-18T00:08:08.000Z,100883
2018-05-18T00:09:23.000Z,100884
2018-05-18T00:10:23.000Z,100888
2018-05-18T00:11:23.000Z,100889
2018-05-18T00:13:23.000Z,100885
2018-05-18T00:15:08.000Z,100889
2018-05-18T00:16:23.000Z,100892
2018-05-18T00:18:23.000Z,100892
2018-05-18T00:19:23.000Z,100891
2018-05-18T00:21:23.000Z,100885
2018-05-18T00:23:08.000Z,100887
2018-05-18T00:24:23.000Z,100882
2018-05-18T00:26:23.000Z,100887
2018-05-18T00:28:08.000Z,100888
2018-05-18T00:29:23.000Z,100886
2018-05-18T00:30:23.000Z,100880
2018-05-18T00:31:23.000Z,100881
2018-05-18T00:33:23.000Z,100881
2018-05-18T00:35:23.000Z,100882
2018-05-18T00:37:23.000Z,100881
2018-05-18T00:39:23.000Z,100879
2018-05-18T00:40:23.000Z,100876
2018-05-18T00:41:23.000Z,100878
2018-05-18T00:43:23.000Z,100873
2018-05-18T00:48:23.000Z,100875
2018-05-18T00:50:09.000Z,100882
2018-05-18T00:51:09.000Z,100880
2018-05-18T00:52:54.000Z,100881
2018-05-18T00:54:09.000Z,100882
2018-05-18T00:56:09.000Z,100885
2018-05-18T00:58:09.000Z,100883
2018-05-18T01:00:09.000Z,100886
2018-05-18T01:02:09.000Z,100885
2018-05-18T01:04:09.000Z,100879
2018-05-18T01:05:09.000Z,100881
2018-05-18T01:07:09.000Z,100873
2018-05-18T01:08:09.000Z,100872
2018-05-18T01:11:55.000Z,100876
2018-05-18T01:13:55.000Z,100876
2018-05-18T01:15:55.000Z,100872
2018-05-18T01:17:55.000Z,100868
2018-05-18T01:18:55.000Z,100871
2018-05-18T01:20:55.000Z,100875
2018-05-18T01:21:55.000Z,100865
2018-05-18T01:23:40.000Z,100871
2018-05-18T01:24:55.000Z,100867
2018-05-18T01:26:55.000Z,100870
2018-05-18T01:27:55.000Z,100869
2018-05-18T01:28:55.000Z,100869
2018-05-18T01:30:55.000Z,100867
2018-05-18T01:31:55.000Z,100864
2018-05-18T01:33:55.000Z,100868
2018-05-18T01:35:24.000Z,100865
2018-05-18T01:36:55.000Z,100863
2018-05-18T01:37:55.000Z,100872
2018-05-18T01:39:55.000Z,100870
2018-05-18T01:41:40.000Z,100872
2018-05-18T01:42:55.000Z,100877
2018-05-18T01:44:40.000Z,100878
2018-05-18T01:45:55.000Z,100874
2018-05-18T01:47:55.000Z,100874
2018-05-18T01:49:55.000Z,100879
2018-05-18T01:51:55.000Z,100876
2018-05-18T01:52:55.000Z,100881
2018-05-18T01:53:55.000Z,100878
2018-05-18T01:55:55.000Z,100882
2018-05-18T01:57:55.000Z,100872
2018-05-18T01:59:55.000Z,100876
2018-05-18T02:00:55.000Z,100876
2018-05-18T02:02:55.000Z,100879
2018-05-18T02:04:55.000Z,100874
2018-05-18T02:06:55.000Z,100874
2018-05-18T02:08:55.000Z,100877
2018-05-18T02:09:55.000Z,100876
2018-05-18T02:11:55.000Z,100867
2018-05-18T02:13:55.000Z,100870
2018-05-18T02:14:55.000Z,100872
2018-05-18T02:16:55.000Z,100870
2018-05-18T02:18:40.000Z,100866
2018-05-18T02:19:55.000Z,100869
2018-05-18T02:21:55.000Z,100870
2018-05-18T02:22:55.000Z,100871
2018-05-18T02:24:55.000Z,100866
2018-05-18T02:25:55.000Z,100862
2018-05-18T02:27:55.000Z,100872
2018-05-18T02:29:55.000Z,100877
2018-05-18T02:31:40.000Z,100878
2018-05-18T02:32:55.000Z,100877
2018-05-18T02:34:55.000Z,100880
2018-05-18T02:36:55.000Z,100877
2018-05-18T02:37:55.000Z,100875
2018-05-18T02:39:40.000Z,100882
2018-05-18T02:40:55.000Z,100883
2018-05-18T02:42:55.000Z,100885
2018-05-18T02:44:55.000Z,100884
2018-05-18T02:46:55.000Z,100887
2018-05-18T02:47:55.000Z,100886
2018-05-18T02:49:55.000Z,100889
2018-05-18T02:50:55.000Z,100891
2018-05-18T02:52:55.000Z,100886
2018-05-18T02:53:55.000Z,100888
2018-05-18T02:55:55.000Z,100887
2018-05-18T02:57:55.000Z,100885
2018-05-18T02:59:55.000Z,100887
2018-05-18T03:01:40.000Z,100891
2018-05-18T03:02:55.000Z,100882
2018-05-18T03:04:40.000Z,100884
2018-05-18T03:05:55.000Z,100889
2018-05-18T03:07:55.000Z,100883
2018-05-18T03:09:55.000Z,100884
2018-05-18T03:10:55.000Z,100887
2018-05-18T03:12:40.000Z,100891
2018-05-18T03:13:55.000Z,100876
2018-05-18T03:15:55.000Z,100882
2018-05-18T03:17:55.000Z,100887
2018-05-18T03:19:55.000Z,100889
2018-05-18T03:21:55.000Z,100886
2018-05-18T03:22:55.000Z,100885
2018-05-18T03:24:55.000Z,100886
2018-05-18T03:25:55.000Z,100885
2018-05-18T03:26:55.000Z,100883
2018-05-18T03:28:55.000Z,100881
2018-05-18T03:30:55.000Z,100886
2018-05-18T03:32:55.000Z,100883
2018-05-18T03:34:40.000Z,100892
2018-05-18T03:35:55.000Z,100893
2018-05-18T03:37:01.000Z,100891
2018-05-18T03:38:55.000Z,100889
2018-05-18T03:40:55.000Z,100893
2018-05-18T03:41:55.000Z,100892
2018-05-18T03:43:55.000Z,100888
2018-05-18T03:45:55.000Z,100883
2018-05-18T03:47:55.000Z,100891
2018-05-18T03:48:55.000Z,100883
2018-05-18T03:50:55.000Z,100892
2018-05-18T03:51:55.000Z,100889
2018-05-18T03:53:55.000Z,100883
2018-05-18T03:55:55.000Z,100887
2018-05-18T03:57:55.000Z,100896
2018-05-18T03:59:55.000Z,100890
2018-05-18T04:01:55.000Z,100887
2018-05-18T04:02:55.000Z,100888
2018-05-18T04:04:40.000Z,100890
2018-05-18T04:05:55.000Z,100885
2018-05-18T04:07:55.000Z,100893
2018-05-18T04:09:55.000Z,100893
2018-05-18T04:11:55.000Z,100894
2018-05-18T04:12:55.000Z,100899
2018-05-18T04:14:55.000Z,100899
2018-05-18T04:15:55.000Z,100899
2018-05-18T04:17:55.000Z,100901
2018-05-18T04:19:55.000Z,100897
2018-05-18T04:21:39.000Z,100907
2018-05-18T04:22:55.000Z,100904
2018-05-18T04:24:55.000Z,100912
2018-05-18T04:25:55.000Z,100907
2018-05-18T04:26:55.000Z,100909
2018-05-18T04:30:59.000Z,100904
2018-05-18T04:32:59.000Z,100910
2018-05-18T04:33:59.000Z,100912
2018-05-18T04:35:59.000Z,100907
2018-05-18T04:37:28.000Z,100919
2018-05-18T04:38:59.000Z,100918
2018-05-18T04:40:43.000Z,100925
2018-05-18T04:41:59.000Z,100930
2018-05-18T04:43:43.000Z,100922
2018-05-18T04:44:59.000Z,100915
2018-05-18T04:45:59.000Z,100920
2018-05-18T04:47:59.000Z,100919
2018-05-18T04:48:59.000Z,100918
2018-05-18T04:50:59.000Z,100922
2018-05-18T04:51:59.000Z,100922
2018-05-18T04:53:59.000Z,100929
2018-05-18T04:54:59.000Z,100927
2018-05-18T04:56:43.000Z,100924
2018-05-18T04:57:59.000Z,100921
2018-05-18T04:59:28.000Z,100923
2018-05-18T05:00:59.000Z,100920
2018-05-18T05:02:59.000Z,100927
2018-05-18T05:03:59.000Z,100931
2018-05-18T05:05:59.000Z,100927
2018-05-18T05:06:59.000Z,100922
2018-05-18T05:08:59.000Z,100925
2018-05-18T05:09:59.000Z,100928
2018-05-18T05:11:59.000Z,100927
2018-05-18T05:13:59.000Z,100931
2018-05-18T05:15:59.000Z,100928
2018-05-18T05:17:43.000Z,100930
2018-05-18T05:18:59.000Z,100927
2018-05-18T05:20:59.000Z,100930
2018-05-18T05:21:59.000Z,100925
2018-05-18T05:23:59.000Z,100929
2018-05-18T05:25:59.000Z,100924
2018-05-18T05:27:59.000Z,100929
2018-05-18T05:29:59.000Z,100929
2018-05-18T05:30:59.000Z,100924
2018-05-18T05:32:59.000Z,100930
2018-05-18T05:33:59.000Z,100933
2018-05-18T05:35:59.000Z,100938
2018-05-18T05:37:59.000Z,100939
2018-05-18T05:38:59.000Z,100938
2018-05-18T05:40:59.000Z,100934
2018-05-18T05:42:59.000Z,100932
2018-05-18T05:44:59.000Z,100936
2018-05-18T05:45:59.000Z,100933
2018-05-18T05:47:43.000Z,100939
2018-05-18T05:48:59.000Z,100941
2018-05-18T05:50:59.000Z,100935
2018-05-18T05:51:59.000Z,100941
2018-05-18T05:53:59.000Z,100940
2018-05-18T05:54:59.000Z,100945
2018-05-18T05:56:59.000Z,100943
2018-05-18T05:58:59.000Z,100946
2018-05-18T06:00:59.000Z,100945
2018-05-18T06:02:59.000Z,100947
2018-05-18T06:04:59.000Z,100946
2018-05-18T06:05:59.000Z,100943
2018-05-18T06:06:59.000Z,100948
2018-05-18T06:08:59.000Z,100946
2018-05-18T06:10:43.000Z,100946
2018-05-18T06:11:59.000Z,100947
2018-05-18T06:13:59.000Z,100951
2018-05-18T06:14:59.000Z,100956
2018-05-18T06:15:59.000Z,100947
2018-05-18T06:16:59.000Z,100953
2018-05-18T06:18:59.000Z,100949
2018-05-18T06:20:43.000Z,100957
2018-05-18T06:21:59.000Z,100957
2018-05-18T06:23:59.000Z,100958
2018-05-18T06:25:28.000Z,100962
2018-05-18T06:26:59.000Z,100964
2018-05-18T06:28:59.000Z,100962
2018-05-18T06:29:59.000Z,100964
2018-05-18T06:30:59.000Z,100968
2018-05-18T06:32:59.000Z,100960
2018-05-18T06:34:59.000Z,100966
2018-05-18T06:35:59.000Z,100966
2018-05-18T06:37:58.000Z,100968
2018-05-18T06:39:58.000Z,100976
2018-05-18T06:41:58.000Z,100974
2018-05-18T06:43:43.000Z,100970
2018-05-18T06:44:58.000Z,100974
2018-05-18T06:46:43.000Z,100976
2018-05-18T06:47:58.000Z,100974
2018-05-18T06:49:58.000Z,100972
2018-05-18T06:51:58.000Z,100972
2018-05-18T06:53:58.000Z,100970
2018-05-18T06:54:58.000Z,100976
2018-05-18T06:55:58.000Z,100977
2018-05-18T06:57:58.000Z,100977
2018-05-18T06:58:58.000Z,100972
2018-05-18T07:00:58.000Z,100978
2018-05-18T07:02:58.000Z,100975
2018-05-18T07:04:58.000Z,100975
2018-05-18T07:06:58.000Z,100976
2018-05-18T07:08:58.000Z,100980
2018-05-18T07:10:58.000Z,100989
2018-05-18T07:11:58.000Z,100987
2018-05-18T07:13:58.000Z,100990
2018-05-18T07:15:58.000Z,100983
2018-05-18T07:16:58.000Z,100977
2018-05-18T07:17:58.000Z,100980
2018-05-18T07:19:58.000Z,100982
2018-05-18T07:21:58.000Z,100977
2018-05-18T07:23:58.000Z,100977
2018-05-18T07:25:28.000Z,100980
2018-05-18T07:26:58.000Z,100980
2018-05-18T07:27:58.000Z,100979
2018-05-18T07:29:58.000Z,100980
2018-05-18T07:31:28.000Z,100980
2018-05-18T07:32:58.000Z,100980
2018-05-18T07:34:58.000Z,100974
2018-05-18T07:36:43.000Z,100982
2018-05-18T07:37:58.000Z,100977
2018-05-18T07:39:43.000Z,100971
2018-05-18T07:40:58.000Z,100977
2018-05-18T07:42:59.000Z,100977
2018-05-18T07:44:59.000Z,100976
2018-05-18T07:46:58.000Z,100976
2018-05-18T07:47:59.000Z,100982
2018-05-18T07:48:59.000Z,100982
2018-05-18T07:50:59.000Z,100989
2018-05-18T07:52:58.000Z,100987
2018-05-18T07:54:58.000Z,100985
2018-05-18T07:56:58.000Z,100981
2018-05-18T07:57:59.000Z,100981
2018-05-18T07:59:59.000Z,100991
2018-05-18T08:01:59.000Z,100979
2018-05-18T08:03:59.000Z,100983
2018-05-18T08:05:58.000Z,100983
2018-05-18T08:06:59.000Z,100986
2018-05-18T08:08:59.000Z,100992
2018-05-18T08:10:43.000Z,100992
2018-05-18T08:11:59.000Z,100992
2018-05-18T08:13:59.000Z,100988
2018-05-18T08:15:59.000Z,100991
2018-05-18T08:17:43.000Z,100990
2018-05-18T08:18:59.000Z,100991
2018-05-18T08:19:59.000Z,100985
2018-05-18T08:20:59.000Z,100986
2018-05-18T08:22:59.000Z,100987
2018-05-18T08:23:59.000Z,100994
2018-05-18T08:25:43.000Z,100986
2018-05-18T08:26:59.000Z,100991
2018-05-18T08:28:59.000Z,100993
2018-05-18T08:29:59.000Z,100995
2018-05-18T08:31:59.000Z,100991
2018-05-18T08:32:59.000Z,100995
2018-05-18T08:34:59.000Z,100997
2018-05-18T08:36:43.000Z,100993
2018-05-18T08:37:59.000Z,100997
2018-05-18T08:39:43.000Z,101003
2018-05-18T08:40:59.000Z,100999
2018-05-18T08:42:59.000Z,100996
2018-05-18T08:44:59.000Z,101000
2018-05-18T08:46:59.000Z,100995
2018-05-18T08:47:59.000Z,100996
2018-05-18T08:49:44.000Z,100991
2018-05-18T08:50:59.000Z,100993
2018-05-18T08:51:59.000Z,100997
2018-05-18T08:53:59.000Z,100998
2018-05-18T08:55:57.000Z,101000
2018-05-18T08:57:57.000Z,100993
2018-05-18T08:59:57.000Z,100989
2018-05-18T09:00:57.000Z,100994
2018-05-18T09:02:57.000Z,100991
2018-05-18T09:03:57.000Z,100988
2018-05-18T09:04:57.000Z,100990
2018-05-18T09:06:57.000Z,100985
2018-05-18T09:07:57.000Z,100985
2018-05-18T09:09:57.000Z,100984
2018-05-18T09:11:57.000Z,100982
2018-05-18T09:12:57.000Z,100981
2018-05-18T09:14:57.000Z,100981
2018-05-18T09:16:57.000Z,100984
2018-05-18T09:17:57.000Z,100986
2018-05-18T09:19:57.000Z,100987
2018-05-18T09:20:57.000Z,100985
2018-05-18T09:22:57.000Z,100984
2018-05-18T09:23:57.000Z,100985
2018-05-18T09:24:57.000Z,100982
2018-05-18T09:26:57.000Z,100984
2018-05-18T09:28:57.000Z,100987
2018-05-18T09:29:57.000Z,100984
2018-05-18T09:31:57.000Z,100979
2018-05-18T09:33:42.000Z,100979
2018-05-18T09:34:57.000Z,100983
2018-05-18T09:36:57.000Z,100977
2018-05-18T09:37:57.000Z,100972
2018-05-18T09:39:57.000Z,100976
2018-05-18T09:40:57.000Z,100975
2018-05-18T09:41:57.000Z,100970
2018-05-18T09:43:57.000Z,100981
2018-05-18T09:44:57.000Z,100979
2018-05-18T09:46:57.000Z,100971
2018-05-18T09:47:57.000Z,100964
2018-05-18T09:49:57.000Z,100964
2018-05-18T09:51:57.000Z,100968
2018-05-18T09:53:42.000Z,100966
2018-05-18T09:54:57.000Z,100973
2018-05-18T09:56:57.000Z,100976
2018-05-18T09:58:57.000Z,100979
2018-05-18T10:00:42.000Z,100975
2018-05-18T10:01:57.000Z,100978
2018-05-18T10:03:57.000Z,100984
2018-05-18T10:05:57.000Z,100978
2018-05-18T10:07:57.000Z,100983
2018-05-18T10:09:42.000Z,100978
2018-05-18T10:10:57.000Z,100980
2018-05-18T10:12:57.000Z,100974
2018-05-18T10:14:57.000Z,100975
2018-05-18T10:16:57.000Z,100976
2018-05-18T10:18:57.000Z,100976
2018-05-18T10:20:42.000Z,100973
2018-05-18T10:21:57.000Z,100977
2018-05-18T10:23:57.000Z,100968
2018-05-18T10:25:57.000Z,100977
2018-05-18T10:27:57.000Z,100979
2018-05-18T10:29:57.000Z,100977
2018-05-18T10:30:57.000Z,100977
2018-05-18T10:32:57.000Z,100972
2018-05-18T10:34:42.000Z,100970
2018-05-18T10:35:57.000Z,100972
2018-05-18T10:37:57.000Z,100970
2018-05-18T10:39:57.000Z,100970
2018-05-18T10:40:57.000Z,100969
2018-05-18T10:41:57.000Z,100973
2018-05-18T10:43:57.000Z,100968
2018-05-18T10:45:42.000Z,100969
2018-05-18T10:46:42.000Z,100967
2018-05-18T10:47:57.000Z,100964
2018-05-18T10:49:57.000Z,100958
2018-05-18T10:51:57.000Z,100966
2018-05-18T10:53:57.000Z,100957
2018-05-18T10:55:57.000Z,100956
2018-05-18T10:57:57.000Z,100954
2018-05-18T10:59:57.000Z,100950
2018-05-18T11:00:57.000Z,100943
2018-05-18T11:02:57.000Z,100958
2018-05-18T11:04:57.000Z,100953
2018-05-18T11:06:57.000Z,100948
2018-05-18T11:08:57.000Z,100945
2018-05-18T11:10:57.000Z,100948
2018-05-18T11:12:57.000Z,100941
2018-05-18T11:13:57.000Z,100942
2018-05-18T11:15:57.000Z,100943
2018-05-18T11:17:42.000Z,100934
2018-05-18T11:18:57.000Z,100941
2018-05-18T11:19:57.000Z,100947
2018-05-18T11:21:57.000Z,100938
2018-05-18T11:22:57.000Z,100936
2018-05-18T11:24:26.000Z,100937
2018-05-18T11:25:57.000Z,100935
2018-05-18T11:26:57.000Z,100930
2018-05-18T11:28:57.000Z,100925
2018-05-18T11:30:57.000Z,100929
2018-05-18T11:31:57.000Z,100931
2018-05-18T11:33:42.000Z,100920
2018-05-18T11:35:57.000Z,100924
2018-05-18T11:36:57.000Z,100925
2018-05-18T11:38:57.000Z,100924
2018-05-18T11:39:57.000Z,100926
2018-05-18T11:41:57.000Z,100921
2018-05-18T11:43:42.000Z,100920
2018-05-18T11:44:57.000Z,100917
2018-05-18T11:46:57.000Z,100919
2018-05-18T11:47:57.000Z,100916
2018-05-18T11:48:57.000Z,100914
2018-05-18T11:50:42.000Z,100912
2018-05-18T11:52:57.000Z,100914
2018-05-18T11:54:57.000Z,100916
2018-05-18T11:56:57.000Z,100911
2018-05-18T11:57:57.000Z,100909
2018-05-18T11:58:57.000Z,100910
2018-05-18T12:00:57.000Z,100909
2018-05-18T12:02:57.000Z,100901
2018-05-18T12:03:57.000Z,100904
2018-05-18T12:05:57.000Z,100901
2018-05-18T12:07:57.000Z,100901
2018-05-18T12:09:57.000Z,100895
2018-05-18T12:11:57.000Z,100896
2018-05-18T12:12:57.000Z,100904
2018-05-18T12:14:57.000Z,100895
2018-05-18T12:16:41.000Z,100894
2018-05-18T12:17:57.000Z,100900
2018-05-18T12:19:57.000Z,100896
2018-05-18T12:20:57.000Z,100893
2018-05-18T12:22:57.000Z,100896
2018-05-18T12:24:57.000Z,100895
2018-05-18T12:25:57.000Z,100894
2018-05-18T12:27:57.000Z,100891
2018-05-18T12:29:57.000Z,100886
2018-05-18T12:31:41.000Z,100886
2018-05-18T12:32:57.000Z,100885
2018-05-18T12:33:57.000Z,100887
2018-05-18T12:34:57.000Z,100877
2018-05-18T12:36:57.000Z,100879
2018-05-18T12:38:57.000Z,100876
2018-05-18T12:40:57.000Z,100874
2018-05-18T12:41:57.000Z,100874
2018-05-18T12:43:57.000Z,100866
2018-05-18T12:44:57.000Z,100865
2018-05-18T12:46:41.000Z,100869
2018-05-18T12:47:41.000Z,100866
2018-05-18T12:48:57.000Z,100866
2018-05-18T12:50:57.000Z,100872
2018-05-18T12:51:57.000Z,100869
2018-05-18T12:52:57.000Z,100867
2018-05-18T12:54:57.000Z,100870
2018-05-18T12:55:57.000Z,100863
2018-05-18T12:57:57.000Z,100859
2018-05-18T12:59:41.000Z,100863
2018-05-18T13:00:57.000Z,100866
2018-05-18T13:02:57.000Z,100866
2018-05-18T13:04:41.000Z,100864
2018-05-18T13:05:57.000Z,100867
2018-05-18T13:06:57.000Z,100861
2018-05-18T13:08:57.000Z,100861
2018-05-18T13:10:57.000Z,100859
2018-05-18T13:11:57.000Z,100857
2018-05-18T13:13:41.000Z,100852
2018-05-18T13:14:57.000Z,100854
2018-05-18T13:16:57.000Z,100853
2018-05-18T13:18:57.000Z,100846
2018-05-18T13:20:57.000Z,100849
2018-05-18T13:21:57.000Z,100853
2018-05-18T13:23:57.000Z,100853
2018-05-18T13:25:42.000Z,100857
2018-05-18T13:26:57.000Z,100852
2018-05-18T13:28:57.000Z,100853
2018-05-18T13:30:57.000Z,100853
2018-05-18T13:32:57.000Z,100854
2018-05-18T13:33:57.000Z,100849
2018-05-18T13:35:57.000Z,100849
2018-05-18T13:37:57.000Z,100846
2018-05-18T13:38:57.000Z,100839
2018-05-18T13:40:57.000Z,100842
2018-05-18T13:42:57.000Z,100844
2018-05-18T13:44:57.000Z,100844
2018-05-18T13:46:57.000Z,100849
2018-05-18T13:47:57.000Z,100844
2018-05-18T13:49:57.000Z,100841
2018-05-18T13:50:57.000Z,100842
2018-05-18T13:52:57.000Z,100845
2018-05-18T13:54:57.000Z,100846
2018-05-18T13:56:57.000Z,100850
2018-05-18T13:57:57.000Z,100848
2018-05-18T13:59:42.000Z,100848
2018-05-18T14:00:57.000Z,100844
2018-05-18T14:02:57.000Z,100842
2018-05-18T14:03:57.000Z,100837
2018-05-18T14:05:57.000Z,100838
2018-05-18T14:06:57.000Z,100835
2018-05-18T14:08:57.000Z,100838
2018-05-18T14:09:57.000Z,100834
2018-05-18T14:11:42.000Z,100840
2018-05-18T14:12:57.000Z,100835
2018-05-18T14:13:57.000Z,100836
2018-05-18T14:15:57.000Z,100837
2018-05-18T14:16:57.000Z,100832
2018-05-18T14:18:57.000Z,100828
2018-05-18T14:20:27.000Z,100828
2018-05-18T14:21:57.000Z,100825
2018-05-18T14:23:57.000Z,100824
2018-05-18T14:25:57.000Z,100830
2018-05-18T14:26:57.000Z,100828
2018-05-18T14:27:57.000Z,100828
2018-05-18T14:29:57.000Z,100829
2018-05-18T14:31:57.000Z,100831
2018-05-18T14:33:57.000Z,100823
2018-05-18T14:34:57.000Z,100825
2018-05-18T14:36:42.000Z,100829
2018-05-18T14:37:57.000Z,100818
2018-05-18T14:39:57.000Z,100827
2018-05-18T14:41:57.000Z,100828
2018-05-18T14:43:57.000Z,100822
2018-05-18T14:45:57.000Z,100822
2018-05-18T14:47:42.000Z,100826
2018-05-18T14:48:57.000Z,100820
2018-05-18T14:50:57.000Z,100823
2018-05-18T14:51:57.000Z,100824
2018-05-18T14:55:43.000Z,100833
2018-05-18T14:57:43.000Z,100827
2018-05-18T14:59:43.000Z,100834
2018-05-18T15:01:43.000Z,100826
2018-05-18T15:02:43.000Z,100826
2018-05-18T15:04:43.000Z,100837
2018-05-18T15:06:43.000Z,100821
2018-05-18T15:07:43.000Z,100823
2018-05-18T15:08:43.000Z,100827
2018-05-18T15:10:43.000Z,100821
2018-05-18T15:11:43.000Z,100825
2018-05-18T15:12:43.000Z,100824
2018-05-18T15:14:43.000Z,100815
2018-05-18T15:16:43.000Z,100823
2018-05-18T15:17:42.000Z,100820
2018-05-18T15:19:42.000Z,100818
2018-05-18T15:21:42.000Z,100821
2018-05-18T15:23:43.000Z,100821
2018-05-18T15:25:42.000Z,100821
2018-05-18T15:26:42.000Z,100821
2018-05-18T15:28:42.000Z,100822
2018-05-18T15:30:42.000Z,100816
2018-05-18T15:31:42.000Z,100814
2018-05-18T15:32:42.000Z,100814
2018-05-18T15:34:42.000Z,100818
2018-05-18T15:35:42.000Z,100815
2018-05-18T15:37:42.000Z,100815
2018-05-18T15:39:42.000Z,100816
2018-05-18T15:40:43.000Z,100816
2018-05-18T15:42:42.000Z,100817
2018-05-18T15:44:27.000Z,100828
2018-05-18T15:45:42.000Z,100819
2018-05-18T15:47:42.000Z,100818
2018-05-18T15:48:42.000Z,100820
2018-05-18T15:49:43.000Z,100815
2018-05-18T15:51:27.000Z,100812
2018-05-18T15:52:42.000Z,100819
2018-05-18T15:53:43.000Z,100818
2018-05-18T15:55:42.000Z,100815
2018-05-18T15:56:43.000Z,100812
2018-05-18T15:58:43.000Z,100817
2018-05-18T16:00:42.000Z,100815
2018-05-18T16:01:42.000Z,100816
2018-05-18T16:03:42.000Z,100814
2018-05-18T16:05:43.000Z,100814
2018-05-18T16:07:42.000Z,100809
2018-05-18T16:09:42.000Z,100807
2018-05-18T16:11:42.000Z,100805
2018-05-18T16:13:42.000Z,100806
2018-05-18T16:14:43.000Z,100806
2018-05-18T16:16:42.000Z,100810
2018-05-18T16:18:42.000Z,100805
2018-05-18T16:19:42.000Z,100808
2018-05-18T16:21:42.000Z,100801
2018-05-18T16:22:42.000Z,100803
2018-05-18T16:24:27.000Z,100798
2018-05-18T16:25:42.000Z,100803
2018-05-18T16:27:42.000Z,100797
2018-05-18T16:29:42.000Z,100797
2018-05-18T16:31:27.000Z,100794
2018-05-18T16:32:42.000Z,100799
2018-05-18T16:33:42.000Z,100803
2018-05-18T16:35:12.000Z,100808
2018-05-18T16:36:42.000Z,100802
2018-05-18T16:37:42.000Z,100803
2018-05-18T16:39:42.000Z,100806
2018-05-18T16:41:42.000Z,100802
2018-05-18T16:42:42.000Z,100802
2018-05-18T16:43:42.000Z,100804
2018-05-18T16:45:42.000Z,100802
2018-05-18T16:47:27.000Z,100803
2018-05-18T16:48:42.000Z,100806
2018-05-18T16:50:42.000Z,100811
2018-05-18T16:51:42.000Z,100808
2018-05-18T16:53:42.000Z,100805
2018-05-18T16:54:42.000Z,100809
2018-05-18T16:56:42.000Z,100812
2018-05-18T16:58:42.000Z,100815
2018-05-18T17:00:27.000Z,100813
2018-05-18T17:01:42.000Z,100807
2018-05-18T17:02:42.000Z,100811
2018-05-18T17:04:42.000Z,100811
2018-05-18T17:05:42.000Z,100805
2018-05-18T17:07:42.000Z,100811
2018-05-18T17:08:42.000Z,100809
2018-05-18T17:10:42.000Z,100808
2018-05-18T17:12:27.000Z,100810
2018-05-18T17:13:42.000Z,100809
2018-05-18T17:15:42.000Z,100804
2018-05-18T17:17:42.000Z,100807
2018-05-18T17:19:42.000Z,100808
2018-05-18T17:21:42.000Z,100809
2018-05-18T17:22:42.000Z,100808
2018-05-18T17:24:42.000Z,100813
2018-05-18T17:25:42.000Z,100810
2018-05-18T17:27:42.000Z,100812
2018-05-18T17:29:42.000Z,100814
2018-05-18T17:31:42.000Z,100808
2018-05-18T17:33:42.000Z,100810
2018-05-18T17:34:42.000Z,100812
2018-05-18T17:35:42.000Z,100807
2018-05-18T17:37:27.000Z,100808
2018-05-18T17:38:42.000Z,100809
2018-05-18T17:39:42.000Z,100809
2018-05-18T17:41:12.000Z,100815
2018-05-18T17:42:42.000Z,100814
2018-05-18T17:44:42.000Z,100816
2018-05-18T17:45:42.000Z,100816
2018-05-18T17:47:42.000Z,100814
2018-05-18T17:49:42.000Z,100812
2018-05-18T17:51:42.000Z,100813
2018-05-18T17:52:42.000Z,100817
2018-05-18T17:54:42.000Z,100811
2018-05-18T17:55:42.000Z,100816
2018-05-18T17:57:27.000Z,100815
2018-05-18T17:58:42.000Z,100815
2018-05-18T17:59:42.000Z,100817
2018-05-18T18:01:42.000Z,100819
2018-05-18T18:02:42.000Z,100823
2018-05-18T18:04:42.000Z,100816
2018-05-18T18:05:42.000Z,100818
2018-05-18T18:07:42.000Z,100815
2018-05-18T18:08:42.000Z,100816
2018-05-18T18:10:42.000Z,100813
2018-05-18T18:11:42.000Z,100816
2018-05-18T18:13:42.000Z,100817
2018-05-18T18:15:27.000Z,100821
2018-05-18T18:16:27.000Z,100821
2018-05-18T18:17:42.000Z,100820
2018-05-18T18:18:42.000Z,100818
2018-05-18T18:20:42.000Z,100823
2018-05-18T18:21:42.000Z,100819
2018-05-18T18:23:42.000Z,100823
2018-05-18T18:25:42.000Z,100821
2018-05-18T18:27:42.000Z,100823
2018-05-18T18:29:28.000Z,100822
2018-05-18T18:30:43.000Z,100824
2018-05-18T18:31:43.000Z,100823
2018-05-18T18:32:43.000Z,100818
2018-05-18T18:34:43.000Z,100818
2018-05-18T18:36:43.000Z,100826
2018-05-18T18:38:43.000Z,100823
2018-05-18T18:40:43.000Z,100821
2018-05-18T18:42:28.000Z,100824
2018-05-18T18:43:43.000Z,100822
2018-05-18T18:45:43.000Z,100825
2018-05-18T18:47:43.000Z,100823
2018-05-18T18:49:13.000Z,100835
2018-05-18T18:50:43.000Z,100830
2018-05-18T18:52:13.000Z,100832
2018-05-18T18:53:43.000Z,100831
2018-05-18T18:55:28.000Z,100833
2018-05-18T18:56:43.000Z,100832
2018-05-18T18:57:43.000Z,100828
2018-05-18T18:59:43.000Z,100829
2018-05-18T19:01:43.000Z,100833
2018-05-18T19:03:43.000Z,100836
2018-05-18T19:04:43.000Z,100840
2018-05-18T19:05:43.000Z,100836
2018-05-18T19:07:43.000Z,100840
2018-05-18T19:09:28.000Z,100842
2018-05-18T19:10:43.000Z,100845
2018-05-18T19:12:43.000Z,100845
2018-05-18T19:14:43.000Z,100850
2018-05-18T19:15:43.000Z,100846
2018-05-18T19:17:43.000Z,100854
2018-05-18T19:19:43.000Z,100849
2018-05-18T19:21:43.000Z,100849
2018-05-18T19:23:28.000Z,100850
2018-05-18T19:24:43.000Z,100858
2018-05-18T19:25:43.000Z,100853
2018-05-18T19:26:43.000Z,100859
2018-05-18T19:28:43.000Z,100854
2018-05-18T19:29:43.000Z,100853
2018-05-18T19:31:28.000Z,100856
2018-05-18T19:32:42.000Z,100855
2018-05-18T19:34:42.000Z,100856
2018-05-18T19:35:42.000Z,100859
2018-05-18T19:37:42.000Z,100855
2018-05-18T19:39:42.000Z,100856
2018-05-18T19:41:42.000Z,100860
2018-05-18T19:42:42.000Z,100858
2018-05-18T19:43:42.000Z,100855
2018-05-18T19:45:42.000Z,100864
2018-05-18T19:46:42.000Z,100862
2018-05-18T19:48:42.000Z,100862
2018-05-18T19:49:42.000Z,100861
2018-05-18T19:51:42.000Z,100864
2018-05-18T19:53:42.000Z,100867
2018-05-18T19:55:42.000Z,100861
2018-05-18T19:57:42.000Z,100865
2018-05-18T19:59:42.000Z,100872
2018-05-18T20:00:42.000Z,100871
2018-05-18T20:01:42.000Z,100870
2018-05-18T20:03:27.000Z,100869
2018-05-18T20:04:42.000Z,100869
2018-05-18T20:05:42.000Z,100869
2018-05-18T20:07:42.000Z,100867
2018-05-18T20:09:42.000Z,100875
2018-05-18T20:11:27.000Z,100866
2018-05-18T20:12:42.000Z,100865
2018-05-18T20:14:42.000Z,100872
2018-05-18T20:15:42.000Z,100871